createdAt,value
2019-03-26T00:01:58.125Z,72.24
2019-03-26T00:04:26.383Z,71.97
2019-03-26T00:06:54.993Z,72.31
2019-03-26T00:09:23.879Z,72.36
2019-03-26T00:11:52.369Z,72.18
2019-03-26T00:14:21.015Z,72.40
2019-03-26T00:16:49.755Z,72.37
2019-03-26T00:19:18.393Z,72.36
2019-03-26T00:21:46.496Z,72.19
2019-03-26T00:24:15.356Z,72.29
2019-03-26T00:26:43.825Z,71.81
2019-03-26T00:29:12.193Z,72.61
2019-03-26T00:31:41.184Z,72.59
2019-03-26T00:34:19.152Z,72.80
2019-03-26T00:36:39.742Z,72.76
2019-03-26T00:39:08.380Z,72.55
2019-03-26T00:41:36.895Z,72.53
2019-03-26T00:44:05.522Z,73.15
2019-03-26T00:46:34.023Z,72.83
2019-03-26T00:49:02.129Z,72.91
2019-03-26T00:51:30.673Z,73.44
2019-03-26T00:53:59.263Z,73.30
2019-03-26T00:56:27.445Z,73.43
2019-03-26T00:58:55.965Z,73.10
2019-03-26T01:01:24.573Z,73.83
2019-03-26T01:03:54.957Z,74.15
2019-03-26T01:06:23.367Z,73.69
2019-03-26T01:08:51.855Z,74.11
2019-03-26T01:11:20.606Z,74.01
2019-03-26T01:13:49.440Z,74.37
2019-03-26T01:16:17.773Z,74.39
2019-03-26T01:18:46.570Z,74.32
2019-03-26T01:21:14.816Z,74.62
2019-03-26T01:23:43.807Z,75.02
2019-03-26T01:26:12.348Z,75.54
2019-03-26T01:28:44.067Z,75.02
2019-03-26T01:31:14.380Z,75.17
2019-03-26T01:33:43.142Z,75.23
2019-03-26T01:36:11.973Z,75.56
2019-03-26T01:38:40.551Z,75.84
2019-03-26T01:41:09.302Z,75.05
2019-03-26T01:43:37.935Z,74.87
2019-03-26T01:46:06.958Z,75.61
2019-03-26T01:48:35.946Z,75.56
2019-03-26T01:51:04.993Z,75.96
2019-03-26T01:53:34.196Z,75.66
2019-03-26T01:56:02.516Z,76.03
2019-03-26T01:58:30.626Z,76.01
2019-03-26T02:00:59.141Z,76.10
2019-03-26T02:03:28.080Z,76.05
2019-03-26T02:05:56.970Z,75.54
2019-03-26T02:08:26.381Z,75.94
2019-03-26T02:10:54.608Z,77.64
2019-03-26T02:13:23.233Z,76.54
2019-03-26T02:15:51.783Z,77.28
2019-03-26T02:18:20.504Z,77.69
2019-03-26T02:20:49.191Z,77.79
2019-03-26T02:23:17.569Z,78.87
2019-03-26T02:25:46.094Z,77.50
2019-03-26T02:28:14.342Z,76.03
2019-03-26T02:30:43.130Z,76.94
2019-03-26T02:33:11.142Z,77.00
2019-03-26T02:35:39.882Z,76.11
2019-03-26T02:38:08.388Z,75.89
2019-03-26T02:40:37.121Z,76.44
2019-03-26T02:43:05.330Z,75.30
2019-03-26T02:45:33.888Z,75.77
2019-03-26T02:48:02.997Z,75.79
2019-03-26T02:50:31.878Z,76.34
2019-03-26T02:53:00.979Z,76.32
2019-03-26T02:55:29.805Z,76.68
2019-03-26T02:57:58.315Z,76.93
2019-03-26T03:00:26.898Z,77.44
2019-03-26T03:02:55.901Z,77.11
2019-03-26T03:05:35.260Z,76.52
2019-03-26T03:07:54.578Z,75.99
2019-03-26T03:10:23.107Z,76.11
2019-03-26T03:12:51.735Z,77.09
2019-03-26T03:15:21.454Z,75.93
2019-03-26T03:17:50.343Z,76.15
2019-03-26T03:20:18.789Z,76.47
2019-03-26T03:22:47.520Z,76.28
2019-03-26T03:25:16.518Z,79.15
2019-03-26T03:27:44.966Z,77.12
2019-03-26T03:30:14.210Z,79.48
2019-03-26T03:32:43.120Z,77.85
2019-03-26T03:35:12.719Z,76.90
2019-03-26T03:37:41.406Z,77.32
2019-03-26T03:40:10.407Z,77.55
2019-03-26T03:42:39.318Z,77.54
2019-03-26T03:45:08.825Z,77.16
2019-03-26T03:47:38.531Z,78.00
2019-03-26T03:50:08.446Z,77.83
2019-03-26T03:52:42.768Z,79.25
2019-03-26T03:55:12.247Z,78.70
2019-03-26T03:57:41.166Z,77.92
2019-03-26T04:00:41.076Z,77.57
2019-03-26T04:03:10.630Z,77.10
2019-03-26T04:05:41.838Z,76.99
2019-03-26T04:08:11.013Z,77.62
2019-03-26T04:10:39.537Z,77.43
2019-03-26T04:13:08.109Z,77.86
2019-03-26T04:15:37.012Z,77.69
2019-03-26T04:18:05.671Z,77.37
2019-03-26T04:20:34.216Z,77.86
2019-03-26T04:23:03.545Z,77.64
2019-03-26T04:25:32.214Z,77.60
2019-03-26T04:28:01.083Z,78.66
2019-03-26T04:30:33.779Z,79.11
2019-03-26T04:33:02.306Z,79.42
2019-03-26T04:35:30.938Z,78.65
2019-03-26T04:37:59.687Z,78.82
2019-03-26T04:40:28.327Z,78.50
2019-03-26T04:42:57.324Z,78.36
2019-03-26T04:45:26.217Z,77.97
2019-03-26T04:47:54.995Z,79.38
2019-03-26T04:50:23.750Z,79.56
2019-03-26T04:52:52.414Z,79.05
2019-03-26T04:55:20.751Z,80.25
2019-03-26T04:57:50.102Z,80.27
2019-03-26T05:00:19.441Z,79.95
2019-03-26T05:02:47.917Z,78.99
2019-03-26T05:05:18.453Z,80.14
2019-03-26T05:07:47.283Z,79.66
2019-03-26T05:10:16.189Z,80.22
2019-03-26T05:12:45.153Z,80.31
2019-03-26T05:15:14.228Z,80.33
2019-03-26T05:17:42.438Z,80.40
2019-03-26T05:20:11.540Z,80.44
2019-03-26T05:22:40.258Z,80.29
2019-03-26T05:25:09.293Z,80.36
2019-03-26T05:27:45.270Z,80.96
2019-03-26T05:30:10.428Z,81.41
2019-03-26T05:32:38.804Z,80.61
2019-03-26T05:35:08.408Z,80.39
2019-03-26T05:37:37.116Z,79.98
2019-03-26T05:40:08.495Z,80.33
2019-03-26T05:42:37.956Z,80.42
2019-03-26T05:45:07.916Z,80.66
2019-03-26T05:47:36.821Z,80.62
2019-03-26T05:50:07.146Z,80.96
2019-03-26T05:52:36.159Z,80.52
2019-03-26T05:55:05.143Z,79.98
2019-03-26T05:57:33.922Z,80.27
2019-03-26T06:00:02.354Z,80.74
2019-03-26T06:02:31.365Z,80.04
2019-03-26T06:05:00.366Z,80.28
2019-03-26T06:07:31.271Z,79.77
2019-03-26T06:10:00.005Z,79.99
2019-03-26T06:12:28.466Z,79.88
2019-03-26T06:14:56.997Z,78.90
2019-03-26T06:17:26.405Z,78.92
2019-03-26T06:19:55.054Z,78.86
2019-03-26T06:22:23.224Z,79.48
2019-03-26T06:24:52.174Z,79.89
2019-03-26T06:27:20.659Z,81.05
2019-03-26T06:29:48.699Z,80.39
2019-03-26T06:32:16.946Z,79.06
2019-03-26T06:34:45.176Z,79.70
2019-03-26T06:37:18.073Z,79.55
2019-03-26T06:39:44.888Z,78.54
2019-03-26T06:42:13.829Z,78.75
2019-03-26T06:44:42.076Z,77.98
2019-03-26T06:47:10.363Z,76.90
2019-03-26T06:49:38.373Z,76.58
2019-03-26T06:52:07.264Z,77.67
2019-03-26T06:54:35.667Z,75.86
2019-03-26T06:57:03.928Z,77.30
2019-03-26T06:59:32.358Z,76.87
2019-03-26T07:02:01.745Z,76.32
2019-03-26T07:04:30.392Z,76.20
2019-03-26T07:06:59.401Z,76.43
2019-03-26T07:09:28.761Z,75.65
2019-03-26T07:11:56.997Z,74.51
2019-03-26T07:14:25.901Z,73.94
2019-03-26T07:16:54.896Z,74.22
2019-03-26T07:19:23.805Z,75.70
2019-03-26T07:21:53.103Z,75.74
2019-03-26T07:24:21.433Z,75.06
2019-03-26T07:26:49.449Z,74.18
2019-03-26T07:29:18.206Z,74.11
2019-03-26T07:31:46.844Z,74.56
2019-03-26T07:34:15.315Z,74.35
2019-03-26T07:36:43.401Z,75.29
2019-03-26T07:39:12.090Z,74.52
2019-03-26T07:41:40.066Z,75.08
2019-03-26T07:44:08.791Z,73.85
2019-03-26T07:46:37.139Z,73.98
2019-03-26T07:49:05.357Z,73.81
2019-03-26T07:51:34.591Z,74.13
2019-03-26T07:54:03.130Z,72.93
2019-03-26T07:56:31.850Z,73.94
2019-03-26T07:58:59.962Z,73.29
2019-03-26T08:01:28.873Z,73.38
2019-03-26T08:03:57.520Z,74.49
2019-03-26T08:06:25.844Z,73.79
2019-03-26T08:08:54.086Z,72.88
2019-03-26T08:11:22.549Z,72.64
2019-03-26T08:13:51.346Z,72.87
2019-03-26T08:16:20.736Z,71.28
2019-03-26T08:18:48.696Z,69.69
2019-03-26T08:21:17.410Z,70.68
2019-03-26T08:23:46.076Z,71.16
2019-03-26T08:26:14.558Z,69.74
2019-03-26T08:28:43.889Z,69.46
2019-03-26T08:31:12.089Z,70.59
2019-03-26T08:33:40.965Z,68.78
2019-03-26T08:36:09.207Z,65.28
2019-03-26T08:38:37.823Z,65.71
2019-03-26T08:41:06.043Z,61.26
2019-03-26T08:43:34.582Z,62.13
2019-03-26T08:46:02.814Z,59.71
2019-03-26T08:48:31.854Z,60.45
2019-03-26T08:51:00.924Z,57.94
2019-03-26T08:53:30.058Z,57.65
2019-03-26T08:55:58.607Z,56.56
2019-03-26T08:58:26.928Z,55.58
2019-03-26T09:00:55.411Z,54.26
2019-03-26T09:03:24.123Z,54.54
2019-03-26T09:05:52.592Z,56.27
2019-03-26T09:08:25.548Z,56.74
2019-03-26T09:10:52.203Z,55.78
2019-03-26T09:13:21.075Z,55.01
2019-03-26T09:15:50.426Z,57.51
2019-03-26T09:18:19.012Z,57.68
2019-03-26T09:20:47.858Z,55.53
2019-03-26T09:23:16.434Z,55.21
2019-03-26T09:25:44.546Z,54.80
2019-03-26T09:28:13.021Z,52.87
2019-03-26T09:30:42.058Z,51.88
2019-03-26T09:33:10.416Z,56.09
2019-03-26T09:35:38.681Z,53.33
2019-03-26T09:38:07.198Z,52.96
2019-03-26T09:40:36.258Z,52.67
2019-03-26T09:43:04.642Z,51.79
2019-03-26T09:45:32.861Z,54.94
2019-03-26T09:48:01.738Z,51.86
2019-03-26T09:50:36.624Z,55.95
2019-03-26T09:53:05.895Z,51.29
2019-03-26T09:55:34.475Z,51.96
2019-03-26T09:58:03.466Z,49.96
2019-03-26T10:00:31.947Z,49.51
2019-03-26T10:03:02.066Z,50.02
2019-03-26T10:05:30.755Z,48.14
2019-03-26T10:07:59.446Z,47.75
2019-03-26T10:10:27.689Z,48.46
2019-03-26T10:12:56.064Z,47.64
2019-03-26T10:15:24.547Z,49.91
2019-03-26T10:17:53.076Z,49.05
2019-03-26T10:20:21.487Z,49.81
2019-03-26T10:22:49.702Z,46.88
2019-03-26T10:25:18.386Z,46.33
2019-03-26T10:27:47.186Z,48.36
2019-03-26T10:30:19.147Z,47.23
2019-03-26T10:32:47.651Z,47.32
2019-03-26T10:35:16.418Z,44.97
2019-03-26T10:37:45.207Z,46.10
2019-03-26T10:40:28.951Z,43.98
2019-03-26T10:42:57.166Z,46.47
2019-03-26T10:45:26.026Z,45.87
2019-03-26T10:47:54.380Z,45.13
2019-03-26T10:50:23.092Z,44.78
2019-03-26T10:52:51.327Z,44.34
2019-03-26T10:55:19.539Z,42.51
2019-03-26T10:57:48.668Z,45.58
2019-03-26T11:00:18.729Z,45.31
2019-03-26T11:02:47.576Z,45.72
2019-03-26T11:05:16.167Z,43.96
2019-03-26T11:07:44.759Z,44.93
2019-03-26T11:10:13.719Z,43.58
2019-03-26T11:12:42.750Z,43.92
2019-03-26T11:15:11.669Z,44.42
2019-03-26T11:17:40.366Z,44.97
2019-03-26T11:20:09.836Z,44.31
2019-03-26T11:22:38.800Z,44.47
2019-03-26T11:25:08.435Z,45.00
2019-03-26T11:27:36.744Z,45.83
2019-03-26T11:30:06.761Z,45.77
2019-03-26T11:32:35.759Z,43.93
2019-03-26T11:35:04.824Z,44.17
2019-03-26T11:37:33.547Z,45.15
2019-03-26T11:40:02.536Z,45.74
2019-03-26T11:42:30.773Z,42.80
2019-03-26T11:44:59.600Z,42.92
2019-03-26T11:47:28.642Z,40.60
2019-03-26T11:49:56.987Z,42.17
2019-03-26T11:52:25.852Z,39.88
2019-03-26T11:54:56.721Z,42.29
2019-03-26T11:57:25.261Z,43.05
2019-03-26T11:59:54.022Z,43.27
2019-03-26T12:02:22.769Z,43.90
2019-03-26T12:04:52.017Z,41.80
2019-03-26T12:07:20.555Z,44.17
2019-03-26T12:09:48.671Z,43.47
2019-03-26T12:12:17.530Z,44.21
2019-03-26T12:14:45.722Z,44.17
2019-03-26T12:17:15.102Z,42.42
2019-03-26T12:19:43.864Z,44.88
2019-03-26T12:22:12.438Z,41.42
2019-03-26T12:24:41.033Z,42.40
2019-03-26T12:27:09.087Z,40.51
2019-03-26T12:29:37.469Z,41.48
2019-03-26T12:32:06.257Z,42.49
2019-03-26T12:34:35.412Z,40.80
2019-03-26T12:37:04.302Z,42.04
2019-03-26T12:39:32.942Z,42.81
2019-03-26T12:42:02.185Z,40.87
2019-03-26T12:44:30.401Z,39.03
2019-03-26T12:46:59.765Z,38.83
2019-03-26T12:49:28.450Z,40.93
2019-03-26T12:51:57.058Z,39.70
2019-03-26T12:54:25.608Z,40.31
2019-03-26T12:56:54.373Z,38.94
2019-03-26T12:59:22.626Z,40.13
2019-03-26T13:01:50.740Z,40.47
2019-03-26T13:04:19.183Z,40.47
2019-03-26T13:06:47.660Z,39.08
2019-03-26T13:09:16.052Z,39.00
2019-03-26T13:11:45.247Z,39.26
2019-03-26T13:14:14.142Z,39.46
2019-03-26T13:16:43.483Z,39.23
2019-03-26T13:19:12.750Z,39.68
2019-03-26T13:21:41.247Z,38.64
2019-03-26T13:24:11.455Z,39.52
2019-03-26T13:26:40.365Z,37.55
2019-03-26T13:29:09.255Z,36.33
2019-03-26T13:31:38.050Z,37.85
2019-03-26T13:34:06.731Z,37.09
2019-03-26T13:36:35.575Z,36.25
2019-03-26T13:39:07.967Z,36.87
2019-03-26T13:41:36.369Z,37.37
2019-03-26T13:44:05.393Z,38.97
2019-03-26T13:46:34.346Z,34.83
2019-03-26T13:49:02.967Z,35.17
2019-03-26T13:51:31.978Z,36.92
2019-03-26T13:54:00.539Z,36.43
2019-03-26T13:56:29.664Z,33.90
2019-03-26T13:58:58.214Z,36.82
2019-03-26T14:01:26.664Z,34.06
2019-03-26T14:03:55.446Z,35.62
2019-03-26T14:06:24.810Z,37.60
2019-03-26T14:08:53.175Z,36.22
2019-03-26T14:11:21.416Z,36.79
2019-03-26T14:13:50.045Z,37.41
2019-03-26T14:16:18.456Z,34.20
2019-03-26T14:18:46.968Z,35.79
2019-03-26T14:21:15.761Z,35.30
2019-03-26T14:23:44.088Z,34.13
2019-03-26T14:26:12.451Z,35.57
2019-03-26T14:28:41.317Z,34.93
2019-03-26T14:31:09.760Z,36.59
2019-03-26T14:33:38.950Z,36.12
2019-03-26T14:36:07.424Z,35.61
2019-03-26T14:38:36.391Z,34.57
2019-03-26T14:41:05.720Z,34.01
2019-03-26T14:43:34.488Z,34.16
2019-03-26T14:46:03.447Z,34.57
2019-03-26T14:48:32.794Z,33.66
2019-03-26T14:51:00.984Z,35.14
2019-03-26T14:53:29.870Z,34.81
2019-03-26T14:55:58.671Z,36.56
2019-03-26T14:58:29.245Z,36.48
2019-03-26T15:00:59.693Z,35.59
2019-03-26T15:03:29.387Z,35.61
2019-03-26T15:05:58.097Z,35.91
2019-03-26T15:08:26.439Z,36.38
2019-03-26T15:11:07.596Z,37.03
2019-03-26T15:13:32.607Z,37.03
2019-03-26T15:16:01.285Z,36.78
2019-03-26T15:18:33.078Z,37.12
2019-03-26T15:21:02.127Z,36.71
2019-03-26T15:23:30.585Z,37.06
2019-03-26T15:26:00.459Z,36.27
2019-03-26T15:28:30.169Z,36.44
2019-03-26T15:30:59.063Z,36.79
2019-03-26T15:33:27.255Z,37.17
2019-03-26T15:35:55.768Z,37.35
2019-03-26T15:38:24.063Z,38.21
2019-03-26T15:40:53.283Z,37.32
2019-03-26T15:43:22.269Z,37.49
2019-03-26T15:45:51.154Z,38.76
2019-03-26T15:48:19.925Z,38.62
2019-03-26T15:50:48.232Z,36.58
2019-03-26T15:53:17.644Z,38.27
2019-03-26T15:55:46.169Z,38.01
2019-03-26T15:58:14.707Z,37.76
2019-03-26T16:00:43.733Z,38.13
2019-03-26T16:03:12.749Z,38.11
2019-03-26T16:05:41.006Z,39.33
2019-03-26T16:08:12.417Z,39.68
2019-03-26T16:10:41.036Z,37.18
2019-03-26T16:13:09.631Z,38.94
2019-03-26T16:15:44.787Z,39.95
2019-03-26T16:18:09.471Z,39.08
2019-03-26T16:20:37.596Z,39.36
2019-03-26T16:23:06.293Z,39.16
2019-03-26T16:25:34.870Z,39.04
2019-03-26T16:28:03.460Z,38.78
2019-03-26T16:30:34.462Z,38.51
2019-03-26T16:33:02.205Z,38.95
2019-03-26T16:35:30.669Z,39.21
2019-03-26T16:37:59.146Z,39.24
2019-03-26T16:40:27.777Z,39.44
2019-03-26T16:42:56.428Z,39.76
2019-03-26T16:45:24.684Z,39.93
2019-03-26T16:47:53.073Z,40.49
2019-03-26T16:50:22.318Z,40.06
2019-03-26T16:52:51.116Z,40.54
2019-03-26T16:55:19.538Z,40.85
2019-03-26T16:57:48.081Z,41.27
2019-03-26T17:00:28.695Z,41.43
2019-03-26T17:02:58.235Z,41.70
2019-03-26T17:05:27.054Z,41.95
2019-03-26T17:07:55.625Z,42.10
2019-03-26T17:10:24.515Z,42.56
2019-03-26T17:12:59.598Z,42.85
2019-03-26T17:15:28.955Z,43.21
2019-03-26T17:17:57.692Z,43.38
2019-03-26T17:20:26.629Z,43.64
2019-03-26T17:22:55.031Z,43.77
2019-03-26T17:25:24.731Z,44.36
2019-03-26T17:27:53.078Z,44.23
2019-03-26T17:30:23.454Z,44.56
2019-03-26T17:32:52.072Z,44.92
2019-03-26T17:35:20.698Z,45.00
2019-03-26T17:37:59.694Z,45.33
2019-03-26T17:40:20.076Z,44.97
2019-03-26T17:42:49.056Z,45.31
2019-03-26T17:45:17.550Z,45.58
2019-03-26T17:47:45.658Z,45.74
2019-03-26T17:50:14.445Z,46.11
2019-03-26T17:52:43.003Z,46.30
2019-03-26T17:55:11.847Z,46.33
2019-03-26T17:57:40.526Z,46.45
2019-03-26T18:00:12.536Z,46.79
2019-03-26T18:02:40.852Z,46.69
2019-03-26T18:05:26.990Z,47.02
2019-03-26T18:07:56.255Z,47.16
2019-03-26T18:10:24.819Z,47.85
2019-03-26T18:12:53.023Z,47.55
2019-03-26T18:15:21.338Z,48.45
2019-03-26T18:17:49.915Z,48.21
2019-03-26T18:20:31.547Z,48.15
2019-03-26T18:22:48.689Z,48.83
2019-03-26T18:25:17.502Z,48.90
2019-03-26T18:27:45.899Z,48.80
2019-03-26T18:30:15.444Z,49.04
2019-03-26T18:32:43.939Z,49.36
2019-03-26T18:35:12.450Z,49.39
2019-03-26T18:37:41.729Z,49.42
2019-03-26T18:40:10.397Z,49.64
2019-03-26T18:42:44.395Z,50.08
2019-03-26T18:45:09.200Z,50.08
2019-03-26T18:47:38.004Z,50.14
2019-03-26T18:50:06.776Z,50.36
2019-03-26T18:52:35.017Z,50.47
2019-03-26T18:55:04.329Z,50.35
2019-03-26T18:57:32.816Z,50.61
2019-03-26T19:00:01.331Z,50.58
2019-03-26T19:02:29.955Z,50.97
2019-03-26T19:04:58.627Z,51.35
2019-03-26T19:07:27.879Z,51.20
2019-03-26T19:09:56.887Z,51.67
2019-03-26T19:12:25.272Z,51.34
2019-03-26T19:14:53.644Z,51.29
2019-03-26T19:17:22.823Z,51.08
2019-03-26T19:19:51.759Z,51.07
2019-03-26T19:22:20.662Z,51.30
2019-03-26T19:24:48.999Z,51.47
2019-03-26T19:27:17.785Z,51.36
2019-03-26T19:29:46.254Z,51.67
2019-03-26T19:32:14.475Z,51.94
2019-03-26T19:34:43.132Z,51.60
2019-03-26T19:37:11.499Z,51.58
2019-03-26T19:39:40.570Z,52.67
2019-03-26T19:42:08.572Z,52.50
2019-03-26T19:44:37.905Z,52.33
2019-03-26T19:47:07.205Z,52.47
2019-03-26T19:49:36.104Z,52.19
2019-03-26T19:52:04.342Z,52.35
2019-03-26T19:54:32.954Z,52.14
2019-03-26T19:57:01.476Z,53.54
2019-03-26T19:59:29.683Z,52.62
2019-03-26T20:01:57.915Z,52.97
2019-03-26T20:04:27.105Z,53.09
2019-03-26T20:06:55.869Z,53.29
2019-03-26T20:09:24.763Z,54.14
2019-03-26T20:11:53.753Z,53.92
2019-03-26T20:14:22.823Z,53.14
2019-03-26T20:16:51.376Z,54.22
2019-03-26T20:19:20.170Z,54.22
2019-03-26T20:21:49.952Z,54.67
2019-03-26T20:24:18.608Z,54.75
2019-03-26T20:26:47.649Z,54.13
2019-03-26T20:29:17.069Z,54.71
2019-03-26T20:31:45.768Z,55.42
2019-03-26T20:34:14.119Z,54.90
2019-03-26T20:36:43.030Z,55.23
2019-03-26T20:39:11.776Z,55.45
2019-03-26T20:41:39.883Z,55.60
2019-03-26T20:44:08.682Z,55.30
2019-03-26T20:46:36.919Z,55.47
2019-03-26T20:49:05.568Z,56.23
2019-03-26T20:51:34.015Z,56.76
2019-03-26T20:54:02.703Z,56.28
2019-03-26T20:56:31.639Z,56.89
2019-03-26T20:59:00.647Z,56.26
2019-03-26T21:01:29.275Z,57.12
2019-03-26T21:03:58.167Z,57.19
2019-03-26T21:06:26.869Z,57.16
2019-03-26T21:08:56.220Z,57.76
2019-03-26T21:11:25.463Z,57.71
2019-03-26T21:13:54.002Z,57.21
2019-03-26T21:16:22.546Z,57.67
2019-03-26T21:18:51.054Z,58.54
2019-03-26T21:21:19.295Z,58.08
2019-03-26T21:23:48.008Z,57.47
2019-03-26T21:26:16.209Z,57.54
2019-03-26T21:28:44.903Z,57.29
2019-03-26T21:31:13.821Z,57.59
2019-03-26T21:33:41.868Z,57.16
2019-03-26T21:36:10.679Z,57.90
2019-03-26T21:38:39.590Z,57.77
2019-03-26T21:41:08.282Z,57.02
2019-03-26T21:43:37.158Z,58.15
2019-03-26T21:46:05.972Z,58.52
2019-03-26T21:48:34.660Z,58.45
2019-03-26T21:51:03.366Z,57.94
2019-03-26T21:53:31.534Z,58.11
2019-03-26T21:56:06.212Z,58.32
2019-03-26T21:58:30.374Z,58.19
2019-03-26T22:00:59.673Z,58.20
2019-03-26T22:03:28.001Z,58.55
2019-03-26T22:05:56.613Z,58.10
2019-03-26T22:08:24.954Z,57.73
2019-03-26T22:10:53.313Z,58.55
2019-03-26T22:13:22.497Z,58.83
2019-03-26T22:15:51.039Z,58.89
2019-03-26T22:18:19.328Z,59.27
2019-03-26T22:20:47.921Z,58.66
2019-03-26T22:23:16.734Z,58.11
2019-03-26T22:25:45.691Z,58.10
2019-03-26T22:28:14.223Z,59.39
2019-03-26T22:30:42.826Z,59.45
2019-03-26T22:33:10.921Z,58.17
2019-03-26T22:35:39.251Z,59.68
2019-03-26T22:38:08.071Z,61.05
2019-03-26T22:40:37.606Z,59.37
2019-03-26T22:43:06.082Z,58.71
2019-03-26T22:45:34.790Z,58.67
2019-03-26T22:48:03.237Z,57.79
2019-03-26T22:50:32.340Z,58.87
2019-03-26T22:53:01.067Z,58.06
2019-03-26T22:55:29.780Z,58.33
2019-03-26T22:57:58.012Z,57.81
2019-03-26T23:00:28.718Z,60.17
2019-03-26T23:02:57.312Z,60.59
2019-03-26T23:05:25.815Z,59.24
2019-03-26T23:07:54.033Z,59.82
2019-03-26T23:10:22.551Z,58.77
2019-03-26T23:12:51.375Z,59.32
2019-03-26T23:15:23.050Z,60.48
2019-03-26T23:17:51.996Z,60.45
2019-03-26T23:20:20.939Z,61.67
2019-03-26T23:22:49.827Z,59.82
2019-03-26T23:25:18.270Z,60.25
2019-03-26T23:27:47.079Z,59.54
2019-03-26T23:30:16.468Z,59.52
2019-03-26T23:32:45.023Z,59.76
2019-03-26T23:35:13.330Z,62.26
2019-03-26T23:37:42.344Z,60.25
2019-03-26T23:40:12.913Z,60.35
2019-03-26T23:42:41.403Z,61.70
2019-03-26T23:45:11.018Z,62.81
2019-03-26T23:47:39.689Z,60.74
2019-03-26T23:50:09.103Z,61.61
2019-03-26T23:52:37.657Z,60.92
2019-03-26T23:55:07.480Z,60.64
2019-03-26T23:57:37.605Z,61.92
